createdAt,value
2023-02-01T00:01:27.190Z,97618.19
2023-02-01T00:03:55.542Z,97619.19
2023-02-01T00:06:24.005Z,97618.03
2023-02-01T00:08:56.395Z,97627.28
2023-02-01T00:11:26.035Z,97624.34
2023-02-01T00:13:55.606Z,97610.94
2023-02-01T00:16:25.044Z,97618.09
2023-02-01T00:18:54.604Z,97618.97
2023-02-01T00:21:23.225Z,97621.94
2023-02-01T00:23:51.626Z,97630.16
2023-02-01T00:26:24.909Z,97640.03
2023-02-01T00:28:53.340Z,97627.19
2023-02-01T00:31:21.842Z,97617.47
2023-02-01T00:33:51.564Z,97618.50
2023-02-01T00:36:19.971Z,97627.66
2023-02-01T00:38:48.421Z,97638.56
2023-02-01T00:41:18.521Z,97639.03
2023-02-01T00:43:49.142Z,97644.59
2023-02-01T00:46:19.283Z,97641.88
2023-02-01T00:48:47.662Z,97633.41
2023-02-01T00:51:18.375Z,97644.78
2023-02-01T00:53:46.786Z,97642.69
2023-02-01T00:56:15.607Z,97633.41
2023-02-01T00:58:45.899Z,97638.88
2023-02-01T01:01:17.325Z,97629.72
2023-02-01T01:03:46.787Z,97615.59
2023-02-01T01:06:17.329Z,97624.41
2023-02-01T01:08:46.170Z,97612.13
2023-02-01T01:11:16.137Z,97608.88
2023-02-01T01:13:44.797Z,97592.28
2023-02-01T01:16:13.554Z,97593.13
2023-02-01T01:18:44.922Z,97570.91
2023-02-01T01:21:16.887Z,97565.38
2023-02-01T01:23:45.802Z,97569.34
2023-02-01T01:26:16.762Z,97566.81
2023-02-01T01:28:45.356Z,97560.78
2023-02-01T01:31:15.034Z,97555.09
2023-02-01T01:33:45.649Z,97549.22
2023-02-01T01:36:14.642Z,97560.44
2023-02-01T01:38:43.240Z,97567.59
2023-02-01T01:41:15.770Z,97570.84
2023-02-01T01:43:54.256Z,97577.00
2023-02-01T01:46:25.560Z,97560.56
2023-02-01T01:49:00.412Z,97554.78
2023-02-01T01:51:32.178Z,97555.09
2023-02-01T01:54:04.583Z,97554.69
2023-02-01T01:56:34.852Z,97567.25
2023-02-01T01:59:03.935Z,97565.94
2023-02-01T02:01:32.274Z,97568.41
2023-02-01T02:04:02.339Z,97566.09
2023-02-01T02:06:37.377Z,97561.31
2023-02-01T02:09:07.064Z,97561.69
2023-02-01T02:11:35.833Z,97565.84
2023-02-01T02:14:04.777Z,97552.97
2023-02-01T02:16:43.090Z,97563.31
2023-02-01T02:19:50.240Z,97583.69
2023-02-01T02:22:36.101Z,97579.53
2023-02-01T02:25:43.302Z,97560.22
2023-02-01T02:28:28.774Z,97562.88
2023-02-01T02:31:10.545Z,97562.22
2023-02-01T02:33:56.272Z,97553.06
2023-02-01T02:36:35.180Z,97564.75
2023-02-01T02:39:10.069Z,97549.00
2023-02-01T02:42:03.537Z,97544.94
2023-02-01T02:44:59.421Z,97539.88
2023-02-01T02:47:31.658Z,97535.69
2023-02-01T02:50:33.623Z,97541.56
2023-02-01T02:53:22.817Z,97537.16
2023-02-01T02:55:52.131Z,97545.63
2023-02-01T02:58:39.711Z,97552.06
2023-02-01T03:01:26.019Z,97549.38
2023-02-01T03:04:09.806Z,97544.25
2023-02-01T03:06:43.505Z,97524.44
2023-02-01T03:09:16.613Z,97520.53
2023-02-01T03:12:03.077Z,97508.88
2023-02-01T03:14:34.087Z,97559.75
2023-02-01T03:17:04.776Z,97528.94
2023-02-01T03:19:36.085Z,97524.97
2023-02-01T03:22:09.138Z,97526.53
2023-02-01T03:24:40.647Z,97526.41
2023-02-01T03:27:14.473Z,97519.78
2023-02-01T03:29:47.540Z,97514.44
2023-02-01T03:32:16.218Z,97506.16
2023-02-01T03:34:45.305Z,97523.06
2023-02-01T03:37:19.623Z,97500.94
2023-02-01T03:39:50.279Z,97492.53
2023-02-01T03:42:22.167Z,97531.47
2023-02-01T03:44:53.945Z,97534.25
2023-02-01T03:47:24.251Z,97519.63
2023-02-01T03:49:58.715Z,97541.88
2023-02-01T03:52:33.601Z,97539.94
2023-02-01T03:55:05.793Z,97545.81
2023-02-01T03:57:39.204Z,97546.03
2023-02-01T04:00:09.870Z,97552.44
2023-02-01T04:02:47.102Z,97554.88
2023-02-01T04:05:16.227Z,97561.56
2023-02-01T04:07:52.724Z,97576.16
2023-02-01T04:10:21.475Z,97579.28
2023-02-01T04:12:49.971Z,97579.13
2023-02-01T04:15:18.330Z,97574.50
2023-02-01T04:17:46.698Z,97565.13
2023-02-01T04:20:14.949Z,97561.38
2023-02-01T04:22:43.234Z,97568.78
2023-02-01T04:25:13.034Z,97581.63
2023-02-01T04:27:41.390Z,97557.78
2023-02-01T04:30:11.699Z,97566.81
2023-02-01T04:32:40.453Z,97570.88
2023-02-01T04:35:09.960Z,97555.50
2023-02-01T04:37:38.323Z,97530.34
2023-02-01T04:40:07.812Z,97538.53
2023-02-01T04:42:37.602Z,97552.16
2023-02-01T04:45:06.753Z,97555.59
2023-02-01T04:47:35.150Z,97558.72
2023-02-01T04:50:03.743Z,97572.13
2023-02-01T04:52:32.053Z,97570.78
2023-02-01T04:55:01.165Z,97558.44
2023-02-01T04:57:29.472Z,97552.56
2023-02-01T05:00:00.319Z,97566.44
2023-02-01T05:02:28.639Z,97560.59
2023-02-01T05:04:57.056Z,97569.28
2023-02-01T05:07:25.459Z,97554.38
2023-02-01T05:09:53.772Z,97549.06
2023-02-01T05:12:39.358Z,97559.03
2023-02-01T05:15:09.997Z,97563.84
2023-02-01T05:17:38.261Z,97548.59
2023-02-01T05:20:08.412Z,97543.38
2023-02-01T05:22:37.097Z,97545.59
2023-02-01T05:25:08.159Z,97557.50
2023-02-01T05:27:36.806Z,97554.06
2023-02-01T05:30:06.058Z,97557.69
2023-02-01T05:32:36.054Z,97579.69
2023-02-01T05:35:04.607Z,97582.97
2023-02-01T05:37:32.985Z,97566.81
2023-02-01T05:40:01.309Z,97560.31
2023-02-01T05:42:29.926Z,97578.69
2023-02-01T05:44:58.304Z,97572.53
2023-02-01T05:47:27.093Z,97580.25
2023-02-01T05:49:57.674Z,97577.44
2023-02-01T05:52:26.890Z,97571.88
2023-02-01T05:54:56.050Z,97569.94
2023-02-01T05:57:25.426Z,97566.81
2023-02-01T05:59:54.652Z,97561.22
2023-02-01T06:02:25.592Z,97557.75
2023-02-01T06:04:55.165Z,97578.75
2023-02-01T06:07:29.383Z,97585.47
2023-02-01T06:09:59.758Z,97575.66
2023-02-01T06:12:32.242Z,97568.69
2023-02-01T06:15:01.577Z,97570.13
2023-02-01T06:17:31.722Z,97583.00
2023-02-01T06:20:01.229Z,97569.44
2023-02-01T06:22:32.184Z,97569.75
2023-02-01T06:25:04.909Z,97566.03
2023-02-01T06:27:34.962Z,97572.19
2023-02-01T06:30:06.755Z,97577.53
2023-02-01T06:32:39.433Z,97572.78
2023-02-01T06:35:12.539Z,97574.78
2023-02-01T06:37:45.941Z,97578.84
2023-02-01T06:40:15.918Z,97589.09
2023-02-01T06:42:48.198Z,97593.59
2023-02-01T06:45:17.403Z,97590.91
2023-02-01T06:47:47.008Z,97592.00
2023-02-01T06:50:15.736Z,97598.78
2023-02-01T06:52:45.417Z,97604.81
2023-02-01T06:55:14.113Z,97608.78
2023-02-01T06:57:42.404Z,97600.47
2023-02-01T07:00:13.614Z,97609.28
2023-02-01T07:02:41.946Z,97596.63
2023-02-01T07:05:11.208Z,97601.78
2023-02-01T07:07:39.425Z,97604.88
2023-02-01T07:10:10.521Z,97605.38
2023-02-01T07:12:40.999Z,97608.13
2023-02-01T07:15:10.898Z,97594.47
2023-02-01T07:17:40.604Z,97595.78
2023-02-01T07:20:11.551Z,97589.97
2023-02-01T07:22:41.149Z,97586.50
2023-02-01T07:25:12.765Z,97577.47
2023-02-01T07:27:42.328Z,97578.59
2023-02-01T07:30:13.582Z,97581.84
2023-02-01T07:32:43.365Z,97583.34
2023-02-01T07:35:13.395Z,97581.19
2023-02-01T07:37:42.605Z,97598.66
2023-02-01T07:40:16.432Z,97595.44
2023-02-01T07:42:45.804Z,97593.91
2023-02-01T07:45:21.230Z,97584.09
2023-02-01T07:47:50.953Z,97598.97
2023-02-01T07:50:21.575Z,97606.44
2023-02-01T07:52:53.369Z,97593.19
2023-02-01T07:55:26.042Z,97592.16
2023-02-01T07:57:55.759Z,97596.81
2023-02-01T08:00:45.027Z,97593.50
2023-02-01T08:03:15.549Z,97604.41
2023-02-01T08:05:45.700Z,97599.63
2023-02-01T08:08:14.442Z,97602.28
2023-02-01T08:10:44.804Z,97603.28
2023-02-01T08:13:13.826Z,97604.31
2023-02-01T08:15:43.117Z,97593.09
2023-02-01T08:18:40.151Z,97596.59
2023-02-01T08:21:10.500Z,97602.47
2023-02-01T08:23:40.590Z,97590.78
2023-02-01T08:26:13.754Z,97592.25
2023-02-01T08:28:52.546Z,97599.00
2023-02-01T08:31:24.046Z,97590.81
2023-02-01T08:33:54.821Z,97587.78
2023-02-01T08:36:24.738Z,97571.88
2023-02-01T08:38:54.370Z,97581.84
2023-02-01T08:41:26.890Z,97586.97
2023-02-01T08:43:56.811Z,97579.22
2023-02-01T08:46:26.822Z,97584.00
2023-02-01T08:48:56.386Z,97574.41
2023-02-01T09:24:26.647Z,97542.72
2023-02-01T09:26:55.196Z,97543.63
2023-02-01T09:29:24.966Z,97545.72
2023-02-01T09:32:03.268Z,97546.44
2023-02-01T09:34:32.387Z,97544.19
2023-02-01T09:37:00.782Z,97541.69
2023-02-01T09:39:32.130Z,97539.91
2023-02-01T09:42:08.225Z,97529.91
2023-02-01T09:44:51.310Z,97520.63
2023-02-01T09:47:21.837Z,97520.75
2023-02-01T09:49:54.892Z,97518.13
2023-02-01T09:52:35.250Z,97510.47
2023-02-01T09:55:09.328Z,97509.78
2023-02-01T09:57:48.452Z,97502.91
2023-02-01T10:00:20.029Z,97510.66
2023-02-01T10:02:48.395Z,97496.88
2023-02-01T10:05:20.773Z,97499.47
2023-02-01T10:07:57.277Z,97491.66
2023-02-01T10:10:31.353Z,97490.81
2023-02-01T10:13:15.868Z,97479.66
2023-02-01T10:15:56.650Z,97469.25
2023-02-01T10:18:43.651Z,97464.94
2023-02-01T10:21:21.755Z,97462.47
2023-02-01T10:24:17.854Z,97471.06
2023-02-01T10:26:55.397Z,97468.25
2023-02-01T10:29:28.350Z,97465.56
2023-02-01T10:31:57.115Z,97456.53
2023-02-01T10:34:28.892Z,97448.72
2023-02-01T10:36:59.757Z,97438.06
2023-02-01T10:39:28.641Z,97432.84
2023-02-01T10:41:58.670Z,97418.16
2023-02-01T10:44:28.816Z,97421.78
2023-02-01T10:46:57.359Z,97413.63
2023-02-01T10:49:31.437Z,97415.75
2023-02-01T10:52:04.415Z,97413.38
2023-02-01T10:54:39.100Z,97404.63
2023-02-01T10:57:11.208Z,97394.63
2023-02-01T10:59:39.723Z,97405.00
2023-02-01T11:02:21.690Z,97407.41
2023-02-01T11:04:50.068Z,97388.88
2023-02-01T11:07:21.882Z,97397.63
2023-02-01T11:09:55.670Z,97384.25
2023-02-01T11:12:29.948Z,97394.81
2023-02-01T11:15:04.872Z,97391.91
2023-02-01T11:17:37.232Z,97387.31
2023-02-01T11:20:08.602Z,97376.31
2023-02-01T11:22:36.893Z,97368.25
2023-02-01T11:25:11.389Z,97351.47
2023-02-01T11:27:53.235Z,97345.69
2023-02-01T11:30:32.710Z,97337.03
2023-02-01T11:33:01.760Z,97339.00
2023-02-01T11:35:31.287Z,97333.06
2023-02-01T11:38:01.087Z,97324.06
2023-02-01T11:40:31.583Z,97326.19
2023-02-01T11:43:03.971Z,97308.69
2023-02-01T11:45:34.928Z,97296.09
2023-02-01T11:48:03.480Z,97307.94
2023-02-01T11:50:41.706Z,97319.19
2023-02-01T11:53:33.627Z,97309.19
2023-02-01T11:56:10.977Z,97279.09
2023-02-01T11:59:15.239Z,97271.09
2023-02-01T12:02:01.277Z,97289.22
2023-02-01T12:05:09.730Z,97270.63
2023-02-01T12:07:58.623Z,97289.41
2023-02-01T12:10:33.587Z,97278.44
2023-02-01T12:13:14.558Z,97285.47
2023-02-01T12:15:55.733Z,97276.72
2023-02-01T12:18:42.093Z,97279.19
2023-02-01T12:21:23.709Z,97295.25
2023-02-01T12:24:05.525Z,97304.91
2023-02-01T12:26:55.651Z,97290.66
2023-02-01T12:29:36.536Z,97284.66
2023-02-01T12:32:13.875Z,97287.81
2023-02-01T12:34:59.563Z,97296.41
2023-02-01T12:37:42.174Z,97279.88
2023-02-01T12:40:19.674Z,97272.25
2023-02-01T12:42:53.720Z,97289.38
2023-02-01T12:45:28.788Z,97284.97
2023-02-01T12:47:59.890Z,97280.25
2023-02-01T12:50:34.029Z,97299.38
2023-02-01T12:53:10.352Z,97284.19
2023-02-01T12:55:42.231Z,97283.94
2023-02-01T12:58:17.843Z,97273.75
2023-02-01T13:00:50.106Z,97285.22
2023-02-01T13:03:30.470Z,97290.88
2023-02-01T13:06:04.746Z,97290.56
2023-02-01T13:08:42.010Z,97287.81
2023-02-01T13:11:14.897Z,97285.00
2023-02-01T13:13:49.315Z,97289.84
2023-02-01T13:16:22.303Z,97261.06
2023-02-01T13:18:53.328Z,97285.78
2023-02-01T13:21:26.831Z,97301.63
2023-02-01T13:23:55.268Z,97318.19
2023-02-01T13:26:23.682Z,97297.03
2023-02-01T13:28:54.115Z,97305.66
2023-02-01T13:31:44.031Z,97299.66
2023-02-01T13:34:45.479Z,97300.03
2023-02-01T13:37:30.052Z,97321.72
2023-02-01T13:40:10.311Z,97366.72
2023-02-01T13:42:47.167Z,97366.75
2023-02-01T13:45:17.864Z,97333.25
2023-02-01T13:47:47.966Z,97352.25
2023-02-01T13:50:23.792Z,97363.41
2023-02-01T13:52:57.724Z,97342.00
2023-02-01T13:55:29.323Z,97345.47
2023-02-01T13:58:15.605Z,97351.47
2023-02-01T14:00:45.167Z,97353.25
2023-02-01T14:03:19.110Z,97342.94
2023-02-01T14:05:59.824Z,97354.09
2023-02-01T14:08:56.393Z,97353.25
2023-02-01T14:11:45.627Z,97353.28
2023-02-01T14:14:41.700Z,97360.13
2023-02-01T14:17:43.307Z,97372.19
2023-02-01T14:20:41.787Z,97378.22
2023-02-01T14:23:16.040Z,97376.50
2023-02-01T14:25:46.811Z,97379.94
2023-02-01T14:28:26.049Z,97374.78
2023-02-01T14:30:56.089Z,97391.13
2023-02-01T14:33:27.710Z,97389.41
2023-02-01T14:36:11.790Z,97393.69
2023-02-01T14:38:41.136Z,97398.84
2023-02-01T14:41:33.793Z,97403.13
2023-02-01T14:44:25.758Z,97399.66
2023-02-01T14:47:12.431Z,97398.81
2023-02-01T14:49:52.558Z,97410.88
2023-02-01T14:52:23.538Z,97410.81
2023-02-01T14:54:56.064Z,97409.88
2023-02-01T14:57:27.864Z,97414.28
2023-02-01T15:00:02.628Z,97413.41
2023-02-01T15:02:32.865Z,97425.34
2023-02-01T15:05:01.147Z,97424.47
2023-02-01T15:07:29.755Z,97422.72
2023-02-01T15:10:07.850Z,97413.19
2023-02-01T15:12:45.495Z,97423.50
2023-02-01T15:15:17.540Z,97408.16
2023-02-01T15:17:52.750Z,97416.69
2023-02-01T15:20:23.302Z,97414.03
2023-02-01T15:22:57.201Z,97426.16
2023-02-01T15:25:27.728Z,97419.25
2023-02-01T15:27:57.912Z,97427.75
2023-02-01T15:30:28.380Z,97419.91
2023-02-01T15:33:08.696Z,97422.59
2023-02-01T15:35:39.206Z,97432.78
2023-02-01T15:38:33.260Z,97431.03
2023-02-01T15:41:03.893Z,97438.84
2023-02-01T15:43:35.299Z,97436.19
2023-02-01T15:46:06.404Z,97435.31
2023-02-01T15:48:39.984Z,97445.56
2023-02-01T15:51:08.577Z,97450.91
2023-02-01T15:53:39.541Z,97440.47
2023-02-01T15:56:08.462Z,97453.22
2023-02-01T15:58:38.272Z,97460.03
2023-02-01T16:01:07.953Z,97458.22
2023-02-01T16:03:38.916Z,97479.50
2023-02-01T16:06:10.448Z,97482.19
2023-02-01T16:08:40.233Z,97483.97
2023-02-01T16:11:25.719Z,97490.50
2023-02-01T16:13:55.772Z,97476.84
2023-02-01T16:16:24.665Z,97482.06
2023-02-01T16:18:53.453Z,97485.56
2023-02-01T16:21:22.046Z,97489.09
2023-02-01T16:23:51.815Z,97490.97
2023-02-01T16:26:21.030Z,97487.78
2023-02-01T16:28:50.410Z,97500.81
2023-02-01T16:31:31.429Z,97495.03
2023-02-01T16:34:00.217Z,97498.44
2023-02-01T16:36:31.560Z,97497.56
2023-02-01T16:39:00.121Z,97500.91
2023-02-01T16:41:30.149Z,97496.63
2023-02-01T16:43:59.058Z,97491.22
2023-02-01T16:46:31.828Z,97502.50
2023-02-01T16:49:02.057Z,97500.63
2023-02-01T16:51:33.870Z,97504.25
2023-02-01T16:54:03.341Z,97501.50
2023-02-01T16:56:33.652Z,97496.31
2023-02-01T16:59:02.182Z,97501.25
2023-02-01T17:01:32.909Z,97490.28
2023-02-01T17:04:01.692Z,97489.16
2023-02-01T17:06:30.907Z,97492.81
2023-02-01T17:09:04.208Z,97489.16
2023-02-01T17:11:33.422Z,97491.06
2023-02-01T17:14:11.748Z,97489.97
2023-02-01T17:16:47.814Z,97484.56
2023-02-01T17:22:05.953Z,97485.53
2023-02-01T17:24:47.916Z,97482.34
2023-02-01T17:27:17.705Z,97487.56
2023-02-01T17:29:47.337Z,97483.25
2023-02-01T17:32:20.482Z,97483.25
2023-02-01T17:34:51.211Z,97478.53
2023-02-01T17:37:30.116Z,97483.63
2023-02-01T17:40:04.882Z,97478.19
2023-02-01T17:42:35.494Z,97465.34
2023-02-01T17:45:21.816Z,97464.06
2023-02-01T17:47:54.862Z,97467.47
2023-02-01T17:50:25.371Z,97471.50
2023-02-01T17:52:54.204Z,97467.34
2023-02-01T17:55:26.880Z,97465.72
2023-02-01T17:57:56.048Z,97467.91
2023-02-01T18:00:25.107Z,97474.53
2023-02-01T18:02:57.950Z,97473.94
2023-02-01T18:05:39.770Z,97470.38
2023-02-01T18:08:13.168Z,97467.66
2023-02-01T18:10:43.614Z,97467.38
2023-02-01T18:13:27.722Z,97481.69
2023-02-01T18:16:11.533Z,97485.28
2023-02-01T18:19:09.001Z,97481.94
2023-02-01T18:21:41.939Z,97486.91
2023-02-01T18:24:13.182Z,97492.94
2023-02-01T18:26:44.402Z,97499.84
2023-02-01T18:29:17.457Z,97485.13
2023-02-01T18:31:58.862Z,97489.28
2023-02-01T18:37:09.032Z,97488.53
2023-02-01T18:39:42.228Z,97488.09
2023-02-01T18:42:19.201Z,97492.28
2023-02-01T18:44:52.017Z,97487.88
2023-02-01T18:47:23.429Z,97490.84
2023-02-01T18:49:56.211Z,97487.34
2023-02-01T18:52:30.411Z,97484.56
2023-02-01T18:55:05.858Z,97488.31
2023-02-01T18:57:39.076Z,97479.25
2023-02-01T19:00:19.313Z,97485.94
2023-02-01T19:02:52.440Z,97484.25
2023-02-01T19:05:26.170Z,97486.38
2023-02-01T19:08:02.228Z,97492.72
2023-02-01T19:10:32.870Z,97500.19
2023-02-01T19:13:04.271Z,97500.38
2023-02-01T19:15:36.498Z,97496.78
2023-02-01T19:18:09.522Z,97498.00
2023-02-01T19:20:46.594Z,97495.75
2023-02-01T19:23:26.024Z,97494.00
2023-02-01T19:25:59.535Z,97499.78
2023-02-01T19:28:31.846Z,97508.06
2023-02-01T19:31:07.999Z,97515.88
2023-02-01T19:33:42.325Z,97513.88
2023-02-01T19:36:18.940Z,97523.97
2023-02-01T19:38:49.631Z,97526.88
2023-02-01T19:41:20.045Z,97518.84
2023-02-01T19:43:53.902Z,97517.91
2023-02-01T19:46:23.810Z,97528.16
2023-02-01T19:48:56.058Z,97534.41
2023-02-01T19:51:35.869Z,97539.88
2023-02-01T19:54:07.804Z,97531.13
2023-02-01T20:03:15.895Z,97544.81
2023-02-01T21:25:20.541Z,97546.47
2023-02-01T22:08:56.569Z,97523.94
2023-02-01T22:11:27.685Z,97541.19
2023-02-01T22:13:57.066Z,97544.44
2023-02-01T22:16:28.016Z,97535.75
2023-02-01T22:19:00.398Z,97527.06
2023-02-01T22:21:29.521Z,97546.59
2023-02-01T22:24:00.730Z,97539.91
2023-02-01T22:26:33.088Z,97542.78
2023-02-01T22:29:54.321Z,97541.22
2023-02-01T22:32:23.042Z,97525.56
2023-02-01T22:34:51.556Z,97541.59
2023-02-01T22:37:21.352Z,97522.69
2023-02-01T22:39:52.460Z,97533.56
2023-02-01T22:42:21.624Z,97523.69
2023-02-01T22:44:50.034Z,97520.59
2023-02-01T22:47:18.691Z,97511.69
2023-02-01T22:49:47.798Z,97513.38
2023-02-01T22:52:16.262Z,97504.81
2023-02-01T22:54:44.515Z,97500.63
2023-02-01T22:57:14.257Z,97504.69
2023-02-01T22:59:42.689Z,97499.84
2023-02-01T23:02:12.137Z,97497.69
2023-02-01T23:04:41.046Z,97499.03
2023-02-01T23:07:10.230Z,97500.16
2023-02-01T23:13:48.673Z,97494.22
2023-02-01T23:16:18.259Z,97486.09
2023-02-01T23:18:48.107Z,97474.34
2023-02-01T23:21:19.034Z,97495.22
2023-02-01T23:23:48.358Z,97490.25
2023-02-01T23:26:17.855Z,97472.00
2023-02-01T23:28:50.531Z,97468.94
2023-02-01T23:31:20.335Z,97474.88
2023-02-01T23:33:49.892Z,97473.72
2023-02-01T23:36:19.254Z,97473.75
2023-02-01T23:38:48.704Z,97459.88
2023-02-01T23:41:19.792Z,97450.72
2023-02-01T23:44:02.286Z,97429.38
2023-02-01T23:46:33.666Z,97428.53
2023-02-01T23:49:04.104Z,97428.66
2023-02-01T23:51:34.663Z,97441.94
2023-02-01T23:54:04.388Z,97442.78
2023-02-01T23:56:35.814Z,97439.78
2023-02-01T23:59:07.832Z,97449.25
